sensor_id;sensor_type;location;lat;lon;timestamp;P1;P2;P0
30713;PMS7003;17465;47.934;33.430;2024-02-15T00:02:20;87.00;77.25;45.50
30713;PMS7003;17465;47.934;33.430;2024-02-15T00:04:50;81.75;64.75;38.75
30713;PMS7003;17465;47.934;33.430;2024-02-15T00:07:20;86.00;74.50;43.00
30713;PMS7003;17465;47.934;33.430;2024-02-15T00:09:50;79.25;61.00;34.50
30713;PMS7003;17465;47.934;33.430;2024-02-15T00:12:22;78.00;62.00;39.25
30713;PMS7003;17465;47.934;33.430;2024-02-15T00:14:52;80.75;65.50;39.50
30713;PMS7003;17465;47.934;33.430;2024-02-15T00:17:23;80.50;66.00;38.50
30713;PMS7003;17465;47.934;33.430;2024-02-15T00:20:20;85.00;70.25;41.50
30713;PMS7003;17465;47.934;33.430;2024-02-15T00:22:50;80.25;63.25;39.25
30713;PMS7003;17465;47.934;33.430;2024-02-15T00:25:23;75.75;60.25;37.00
30713;PMS7003;17465;47.934;33.430;2024-02-15T00:27:53;78.75;63.50;39.25
30713;PMS7003;17465;47.934;33.430;2024-02-15T00:30:23;78.00;62.25;39.00
30713;PMS7003;17465;47.934;33.430;2024-02-15T00:32:53;78.25;63.00;38.25
30713;PMS7003;17465;47.934;33.430;2024-02-15T00:35:25;63.25;52.75;34.25
30713;PMS7003;17465;47.934;33.430;2024-02-15T00:37:57;73.75;59.75;35.75
30713;PMS7003;17465;47.934;33.430;2024-02-15T00:40:27;70.00;55.00;32.25
30713;PMS7003;17465;47.934;33.430;2024-02-15T00:42:57;72.75;58.00;35.50
30713;PMS7003;17465;47.934;33.430;2024-02-15T00:45:28;74.00;57.75;35.75
30713;PMS7003;17465;47.934;33.430;2024-02-15T00:47:58;74.00;59.50;35.75
30713;PMS7003;17465;47.934;33.430;2024-02-15T00:50:29;74.75;57.75;35.50
30713;PMS7003;17465;47.934;33.430;2024-02-15T00:52:59;73.50;58.25;36.75
30713;PMS7003;17465;47.934;33.430;2024-02-15T00:55:30;65.00;50.75;29.50
30713;PMS7003;17465;47.934;33.430;2024-02-15T00:58:00;67.00;54.00;33.00
30713;PMS7003;17465;47.934;33.430;2024-02-15T01:00:30;72.75;58.25;35.75
30713;PMS7003;17465;47.934;33.430;2024-02-15T01:03:00;73.50;58.50;36.00
30713;PMS7003;17465;47.934;33.430;2024-02-15T01:05:30;74.25;58.25;36.25
30713;PMS7003;17465;47.934;33.430;2024-02-15T01:08:01;78.75;61.50;36.25
30713;PMS7003;17465;47.934;33.430;2024-02-15T01:10:31;72.50;56.00;32.25
30713;PMS7003;17465;47.934;33.430;2024-02-15T01:13:01;75.50;58.75;35.25
30713;PMS7003;17465;47.934;33.430;2024-02-15T01:15:31;67.75;54.75;34.00
30713;PMS7003;17465;47.934;33.430;2024-02-15T01:18:01;71.75;55.00;34.50
30713;PMS7003;17465;47.934;33.430;2024-02-15T01:20:32;76.00;59.00;36.00
30713;PMS7003;17465;47.934;33.430;2024-02-15T01:23:02;68.00;53.75;30.25
30713;PMS7003;17465;47.934;33.430;2024-02-15T01:25:33;79.00;61.00;36.25
30713;PMS7003;17465;47.934;33.430;2024-02-15T01:28:03;72.25;57.75;33.75
30713;PMS7003;17465;47.934;33.430;2024-02-15T01:30:34;74.00;59.50;36.25
30713;PMS7003;17465;47.934;33.430;2024-02-15T01:33:04;73.00;57.00;33.75
30713;PMS7003;17465;47.934;33.430;2024-02-15T01:35:34;73.25;57.00;35.50
30713;PMS7003;17465;47.934;33.430;2024-02-15T01:38:05;75.00;60.25;38.00
30713;PMS7003;17465;47.934;33.430;2024-02-15T01:40:35;74.25;60.00;35.75
30713;PMS7003;17465;47.934;33.430;2024-02-15T01:43:05;77.25;61.00;37.00
30713;PMS7003;17465;47.934;33.430;2024-02-15T01:45:35;71.75;57.50;36.75
30713;PMS7003;17465;47.934;33.430;2024-02-15T01:48:06;71.25;56.75;35.50
30713;PMS7003;17465;47.934;33.430;2024-02-15T01:50:37;70.50;56.00;35.00
30713;PMS7003;17465;47.934;33.430;2024-02-15T01:53:08;71.50;55.75;31.00
30713;PMS7003;17465;47.934;33.430;2024-02-15T01:55:40;77.00;59.25;37.00
30713;PMS7003;17465;47.934;33.430;2024-02-15T01:58:10;74.25;59.25;34.25
30713;PMS7003;17465;47.934;33.430;2024-02-15T02:00:41;74.25;59.50;36.00
30713;PMS7003;17465;47.934;33.430;2024-02-15T02:03:12;73.50;58.50;33.00
30713;PMS7003;17465;47.934;33.430;2024-02-15T02:09:04;72.25;55.75;33.00
30713;PMS7003;17465;47.934;33.430;2024-02-15T02:11:35;68.25;53.75;34.25
30713;PMS7003;17465;47.934;33.430;2024-02-15T02:17:53;78.50;60.50;36.75
30713;PMS7003;17465;47.934;33.430;2024-02-15T02:20:23;74.50;58.00;33.25
30713;PMS7003;17465;47.934;33.430;2024-02-15T02:22:56;75.75;58.75;31.25
30713;PMS7003;17465;47.934;33.430;2024-02-15T02:25:28;75.00;57.75;34.75
30713;PMS7003;17465;47.934;33.430;2024-02-15T02:27:58;75.25;59.25;35.25
30713;PMS7003;17465;47.934;33.430;2024-02-15T02:30:29;74.25;60.25;35.00
30713;PMS7003;17465;47.934;33.430;2024-02-15T02:33:00;81.25;62.50;37.00
30713;PMS7003;17465;47.934;33.430;2024-02-15T02:35:34;69.00;55.00;34.00
30713;PMS7003;17465;47.934;33.430;2024-02-15T02:38:04;73.75;57.50;34.00
30713;PMS7003;17465;47.934;33.430;2024-02-15T02:40:34;75.00;57.50;34.25
30713;PMS7003;17465;47.934;33.430;2024-02-15T02:43:05;67.25;55.00;30.50
30713;PMS7003;17465;47.934;33.430;2024-02-15T02:45:52;73.25;58.00;34.00
30713;PMS7003;17465;47.934;33.430;2024-02-15T02:48:25;77.50;57.75;34.25
30713;PMS7003;17465;47.934;33.430;2024-02-15T02:50:57;70.00;56.50;32.25
30713;PMS7003;17465;47.934;33.430;2024-02-15T02:53:28;64.75;51.25;30.50
30713;PMS7003;17465;47.934;33.430;2024-02-15T02:56:03;62.75;49.00;25.25
30713;PMS7003;17465;47.934;33.430;2024-02-15T02:58:34;69.00;53.00;30.25
30713;PMS7003;17465;47.934;33.430;2024-02-15T03:01:04;67.50;52.75;30.00
30713;PMS7003;17465;47.934;33.430;2024-02-15T03:03:35;61.25;52.00;28.50
30713;PMS7003;17465;47.934;33.430;2024-02-15T03:06:05;66.50;52.25;28.00
30713;PMS7003;17465;47.934;33.430;2024-02-15T03:08:36;64.00;53.25;31.25
30713;PMS7003;17465;47.934;33.430;2024-02-15T03:11:06;65.00;53.25;29.00
30713;PMS7003;17465;47.934;33.430;2024-02-15T03:13:36;64.50;52.25;31.25
30713;PMS7003;17465;47.934;33.430;2024-02-15T03:16:07;62.75;49.25;26.25
30713;PMS7003;17465;47.934;33.430;2024-02-15T03:18:37;62.75;51.00;30.00
30713;PMS7003;17465;47.934;33.430;2024-02-15T03:21:07;57.75;47.75;27.00
30713;PMS7003;17465;47.934;33.430;2024-02-15T03:23:38;61.25;50.75;25.00
30713;PMS7003;17465;47.934;33.430;2024-02-15T03:26:08;53.75;42.75;17.25
30713;PMS7003;17465;47.934;33.430;2024-02-15T03:28:38;57.00;47.00;24.75
30713;PMS7003;17465;47.934;33.430;2024-02-15T03:31:08;77.50;60.25;33.75
30713;PMS7003;17465;47.934;33.430;2024-02-15T03:33:38;123.50;108.00;53.25
30713;PMS7003;17465;47.934;33.430;2024-02-15T03:36:09;68.25;53.00;27.75
30713;PMS7003;17465;47.934;33.430;2024-02-15T03:38:40;61.25;49.25;23.75
30713;PMS7003;17465;47.934;33.430;2024-02-15T03:41:10;46.50;40.75;20.00
30713;PMS7003;17465;47.934;33.430;2024-02-15T03:43:40;59.75;44.00;19.00
30713;PMS7003;17465;47.934;33.430;2024-02-15T03:46:13;53.50;37.50;13.00
30713;PMS7003;17465;47.934;33.430;2024-02-15T03:48:43;57.25;41.50;12.50
30713;PMS7003;17465;47.934;33.430;2024-02-15T03:51:17;41.75;36.25;12.00
30713;PMS7003;17465;47.934;33.430;2024-02-15T03:53:47;59.00;45.50;13.25
30713;PMS7003;17465;47.934;33.430;2024-02-15T03:56:18;43.25;36.25;7.25
30713;PMS7003;17465;47.934;33.430;2024-02-15T03:58:48;59.75;46.00;13.75
30713;PMS7003;17465;47.934;33.430;2024-02-15T04:01:18;48.50;37.00;8.00
30713;PMS7003;17465;47.934;33.430;2024-02-15T04:03:49;49.50;40.25;11.25
30713;PMS7003;17465;47.934;33.430;2024-02-15T04:06:19;48.00;40.25;15.00
30713;PMS7003;17465;47.934;33.430;2024-02-15T04:08:49;60.75;49.50;25.50
30713;PMS7003;17465;47.934;33.430;2024-02-15T04:11:19;63.25;50.00;26.00
30713;PMS7003;17465;47.934;33.430;2024-02-15T04:13:49;45.75;39.75;19.25
30713;PMS7003;17465;47.934;33.430;2024-02-15T04:16:19;35.50;28.75;7.25
30713;PMS7003;17465;47.934;33.430;2024-02-15T04:18:50;56.00;41.25;16.00
30713;PMS7003;17465;47.934;33.430;2024-02-15T04:21:20;51.40;43.60;20.40
30713;PMS7003;17465;47.934;33.430;2024-02-15T04:23:50;63.00;49.80;24.60
30713;PMS7003;17465;47.934;33.430;2024-02-15T04:26:21;61.00;45.50;23.50
30713;PMS7003;17465;47.934;33.430;2024-02-15T04:28:51;71.80;56.40;44.20
30713;PMS7003;17465;47.934;33.430;2024-02-15T04:31:22;64.50;52.75;43.75
30713;PMS7003;17465;47.934;33.430;2024-02-15T04:33:53;86.80;72.20;59.80
30713;PMS7003;17465;47.934;33.430;2024-02-15T04:36:24;95.00;84.00;68.25
30713;PMS7003;17465;47.934;33.430;2024-02-15T04:38:54;112.60;106.80;84.60
30713;PMS7003;17465;47.934;33.430;2024-02-15T04:41:24;93.20;81.20;63.60
30713;PMS7003;17465;47.934;33.430;2024-02-15T04:43:55;75.50;62.25;51.00
30713;PMS7003;17465;47.934;33.430;2024-02-15T04:46:25;57.00;45.80;23.60
30713;PMS7003;17465;47.934;33.430;2024-02-15T04:48:55;47.75;39.50;10.50
30713;PMS7003;17465;47.934;33.430;2024-02-15T04:51:25;56.75;47.25;28.00
30713;PMS7003;17465;47.934;33.430;2024-02-15T04:53:56;45.20;40.40;20.20
30713;PMS7003;17465;47.934;33.430;2024-02-15T04:56:26;41.00;37.20;30.40
30713;PMS7003;17465;47.934;33.430;2024-02-15T04:58:56;66.25;53.25;34.25
30713;PMS7003;17465;47.934;33.430;2024-02-15T05:01:27;56.25;46.25;32.00
30713;PMS7003;17465;47.934;33.430;2024-02-15T05:03:57;61.00;49.20;38.00
30713;PMS7003;17465;47.934;33.430;2024-02-15T05:06:27;84.80;73.40;53.60
30713;PMS7003;17465;47.934;33.430;2024-02-15T05:08:58;97.00;88.00;75.60
30713;PMS7003;17465;47.934;33.430;2024-02-15T05:11:28;124.50;120.25;117.25
30713;PMS7003;17465;47.934;33.430;2024-02-15T05:13:58;108.80;101.40;83.80
30713;PMS7003;17465;47.934;33.430;2024-02-15T05:16:29;117.80;113.00;98.80
30713;PMS7003;17465;47.934;33.430;2024-02-15T05:18:59;126.00;122.40;103.80
30713;PMS7003;17465;47.934;33.430;2024-02-15T05:21:30;105.20;100.60;97.00
30713;PMS7003;17465;47.934;33.430;2024-02-15T05:24:00;115.20;108.20;96.60
30713;PMS7003;17465;47.934;33.430;2024-02-15T05:26:31;108.80;103.40;91.40
30713;PMS7003;17465;47.934;33.430;2024-02-15T05:29:01;104.75;100.50;93.75
30713;PMS7003;17465;47.934;33.430;2024-02-15T05:31:31;102.00;94.80;84.00
30713;PMS7003;17465;47.934;33.430;2024-02-15T05:34:05;113.80;107.80;101.20
30713;PMS7003;17465;47.934;33.430;2024-02-15T05:36:37;118.60;115.40;100.20
30713;PMS7003;17465;47.934;33.430;2024-02-15T05:39:07;114.00;111.00;91.25
30713;PMS7003;17465;47.934;33.430;2024-02-15T05:41:38;122.20;115.40;100.80
30713;PMS7003;17465;47.934;33.430;2024-02-15T05:44:08;115.00;111.00;96.00
30713;PMS7003;17465;47.934;33.430;2024-02-15T05:46:38;120.80;117.20;101.00
30713;PMS7003;17465;47.934;33.430;2024-02-15T05:49:09;107.00;100.20;89.20
30713;PMS7003;17465;47.934;33.430;2024-02-15T05:51:39;114.40;110.60;96.80
30713;PMS7003;17465;47.934;33.430;2024-02-15T05:54:10;126.00;122.75;107.00
30713;PMS7003;17465;47.934;33.430;2024-02-15T05:56:42;113.75;100.00;86.75
30713;PMS7003;17465;47.934;33.430;2024-02-15T05:59:12;109.80;103.00;95.00
30713;PMS7003;17465;47.934;33.430;2024-02-15T06:01:42;115.40;112.00;88.60
30713;PMS7003;17465;47.934;33.430;2024-02-15T06:04:13;116.20;110.80;94.20
30713;PMS7003;17465;47.934;33.430;2024-02-15T06:06:44;97.25;88.25;76.75
30713;PMS7003;17465;47.934;33.430;2024-02-15T06:09:14;83.80;71.60;59.60
30713;PMS7003;17465;47.934;33.430;2024-02-15T06:11:45;50.25;41.75;22.50
30713;PMS7003;17465;47.934;33.430;2024-02-15T06:14:15;79.00;66.75;59.75
30713;PMS7003;17465;47.934;33.430;2024-02-15T06:16:46;84.00;72.25;64.25
30713;PMS7003;17465;47.934;33.430;2024-02-15T06:19:16;89.25;77.00;68.75
30713;PMS7003;17465;47.934;33.430;2024-02-15T06:21:46;78.25;65.00;56.25
30713;PMS7003;17465;47.934;33.430;2024-02-15T06:24:17;51.75;42.75;23.25
30713;PMS7003;17465;47.934;33.430;2024-02-15T06:26:47;46.25;36.25;11.25
30713;PMS7003;17465;47.934;33.430;2024-02-15T06:29:17;53.25;44.25;23.00
30713;PMS7003;17465;47.934;33.430;2024-02-15T06:31:48;54.25;43.75;26.25
30713;PMS7003;17465;47.934;33.430;2024-02-15T06:34:18;39.20;35.40;10.00
30713;PMS7003;17465;47.934;33.430;2024-02-15T06:36:49;94.75;87.00;76.00
30713;PMS7003;17465;47.934;33.430;2024-02-15T06:39:21;109.00;102.75;85.50
30713;PMS7003;17465;47.934;33.430;2024-02-15T06:41:51;119.20;116.40;107.40
30713;PMS7003;17465;47.934;33.430;2024-02-15T06:44:21;175.20;174.00;164.20
30713;PMS7003;17465;47.934;33.430;2024-02-15T06:46:52;169.20;164.80;153.20
30713;PMS7003;17465;47.934;33.430;2024-02-15T06:49:22;156.00;153.80;142.60
30713;PMS7003;17465;47.934;33.430;2024-02-15T06:51:53;132.80;130.40;123.80
30713;PMS7003;17465;47.934;33.430;2024-02-15T06:54:23;200.20;197.80;188.00
30713;PMS7003;17465;47.934;33.430;2024-02-15T06:56:54;193.20;190.80;179.20
30713;PMS7003;17465;47.934;33.430;2024-02-15T06:59:25;195.40;194.00;183.40
30713;PMS7003;17465;47.934;33.430;2024-02-15T07:01:58;190.40;187.60;174.80
30713;PMS7003;17465;47.934;33.430;2024-02-15T07:04:29;164.00;159.60;149.60
30713;PMS7003;17465;47.934;33.430;2024-02-15T07:07:01;165.00;163.40;151.80
30713;PMS7003;17465;47.934;33.430;2024-02-15T07:09:31;197.60;193.00;181.80
30713;PMS7003;17465;47.934;33.430;2024-02-15T07:12:01;211.00;203.00;195.40
30713;PMS7003;17465;47.934;33.430;2024-02-15T07:14:32;167.50;164.50;158.75
30713;PMS7003;17465;47.934;33.430;2024-02-15T07:17:04;140.75;136.50;134.25
30713;PMS7003;17465;47.934;33.430;2024-02-15T07:19:34;128.00;124.40;115.40
30713;PMS7003;17465;47.934;33.430;2024-02-15T07:22:07;128.00;124.75;114.50
30713;PMS7003;17465;47.934;33.430;2024-02-15T07:24:37;142.00;136.40;123.60
30713;PMS7003;17465;47.934;33.430;2024-02-15T07:27:11;149.80;146.60;134.20
30713;PMS7003;17465;47.934;33.430;2024-02-15T07:29:42;134.00;131.60;115.60
30713;PMS7003;17465;47.934;33.430;2024-02-15T07:32:15;105.00;103.00;89.50
30713;PMS7003;17465;47.934;33.430;2024-02-15T07:34:45;132.00;129.00;117.00
30713;PMS7003;17465;47.934;33.430;2024-02-15T07:37:15;107.00;104.75;99.00
30713;PMS7003;17465;47.934;33.430;2024-02-15T07:39:45;96.50;91.75;84.00
30713;PMS7003;17465;47.934;33.430;2024-02-15T07:42:17;101.60;92.80;82.20
30713;PMS7003;17465;47.934;33.430;2024-02-15T07:44:48;92.00;82.75;76.00
30713;PMS7003;17465;47.934;33.430;2024-02-15T07:47:18;48.00;42.80;31.80
30713;PMS7003;17465;47.934;33.430;2024-02-15T07:49:48;52.00;45.00;32.00
30713;PMS7003;17465;47.934;33.430;2024-02-15T07:52:19;77.40;66.60;49.40
30713;PMS7003;17465;47.934;33.430;2024-02-15T07:54:49;93.20;83.20;68.20
30713;PMS7003;17465;47.934;33.430;2024-02-15T07:57:20;68.80;55.40;48.60
30713;PMS7003;17465;47.934;33.430;2024-02-15T07:59:50;75.75;65.00;56.50
30713;PMS7003;17465;47.934;33.430;2024-02-15T08:02:22;83.50;70.75;57.00
30713;PMS7003;17465;47.934;33.430;2024-02-15T08:04:52;87.00;74.75;79.50
30713;PMS7003;17465;47.934;33.430;2024-02-15T08:07:23;93.80;83.40;69.60
30713;PMS7003;17465;47.934;33.430;2024-02-15T08:09:54;74.00;61.60;42.80
30713;PMS7003;17465;47.934;33.430;2024-02-15T08:12:25;34.50;31.00;12.50
30713;PMS7003;17465;47.934;33.430;2024-02-15T08:14:55;37.50;31.25;12.50
30713;PMS7003;17465;47.934;33.430;2024-02-15T08:17:29;37.50;32.50;17.50
30713;PMS7003;17465;47.934;33.430;2024-02-15T08:19:59;43.75;37.75;14.50
30713;PMS7003;17465;47.934;33.430;2024-02-15T08:22:30;30.75;26.75;9.25
30713;PMS7003;17465;47.934;33.430;2024-02-15T08:25:01;42.00;34.50;10.00
30713;PMS7003;17465;47.934;33.430;2024-02-15T08:27:33;33.75;30.25;8.50
30713;PMS7003;17465;47.934;33.430;2024-02-15T08:30:06;23.00;20.75;7.75
30713;PMS7003;17465;47.934;33.430;2024-02-15T08:32:40;29.25;24.50;11.75
30713;PMS7003;17465;47.934;33.430;2024-02-15T08:35:15;36.50;32.25;11.50
30713;PMS7003;17465;47.934;33.430;2024-02-15T08:37:45;31.50;28.50;9.50
30713;PMS7003;17465;47.934;33.430;2024-02-15T08:40:18;40.25;34.75;15.00
30713;PMS7003;17465;47.934;33.430;2024-02-15T08:42:52;35.75;35.75;19.25
30713;PMS7003;17465;47.934;33.430;2024-02-15T08:45:22;39.75;35.50;17.00
30713;PMS7003;17465;47.934;33.430;2024-02-15T08:47:52;42.00;38.75;20.00
30713;PMS7003;17465;47.934;33.430;2024-02-15T08:50:26;31.25;23.50;10.00
30713;PMS7003;17465;47.934;33.430;2024-02-15T08:52:59;25.50;24.25;13.75
30713;PMS7003;17465;47.934;33.430;2024-02-15T08:55:34;44.25;37.25;20.00
30713;PMS7003;17465;47.934;33.430;2024-02-15T08:58:13;41.00;35.50;18.75
30713;PMS7003;17465;47.934;33.430;2024-02-15T09:00:44;51.25;39.50;15.25
30713;PMS7003;17465;47.934;33.430;2024-02-15T09:03:14;45.50;38.50;22.50
30713;PMS7003;17465;47.934;33.430;2024-02-15T09:05:44;51.00;40.00;19.75
30713;PMS7003;17465;47.934;33.430;2024-02-15T09:08:15;44.00;38.75;24.25
30713;PMS7003;17465;47.934;33.430;2024-02-15T09:10:49;43.00;36.00;15.00
30713;PMS7003;17465;47.934;33.430;2024-02-15T09:13:24;46.50;40.50;24.50
30713;PMS7003;17465;47.934;33.430;2024-02-15T09:15:59;43.00;37.75;21.75
30713;PMS7003;17465;47.934;33.430;2024-02-15T09:18:35;49.50;39.00;23.50
30713;PMS7003;17465;47.934;33.430;2024-02-15T09:21:10;45.75;39.00;23.50
30713;PMS7003;17465;47.934;33.430;2024-02-15T09:23:43;37.00;33.50;20.25
30713;PMS7003;17465;47.934;33.430;2024-02-15T09:26:09;43.50;39.25;24.00
30713;PMS7003;17465;47.934;33.430;2024-02-15T09:28:40;44.75;38.75;24.00
30713;PMS7003;17465;47.934;33.430;2024-02-15T09:31:14;42.75;37.00;19.25
30713;PMS7003;17465;47.934;33.430;2024-02-15T09:33:46;40.75;37.00;16.75
30713;PMS7003;17465;47.934;33.430;2024-02-15T09:36:17;44.50;39.50;24.00
30713;PMS7003;17465;47.934;33.430;2024-02-15T09:38:53;48.25;39.50;18.50
30713;PMS7003;17465;47.934;33.430;2024-02-15T09:41:33;40.00;36.25;20.25
30713;PMS7003;17465;47.934;33.430;2024-02-15T09:44:03;49.00;42.25;24.50
30713;PMS7003;17465;47.934;33.430;2024-02-15T09:46:35;47.00;41.75;24.50
30713;PMS7003;17465;47.934;33.430;2024-02-15T09:49:10;43.25;40.00;25.00
30713;PMS7003;17465;47.934;33.430;2024-02-15T09:51:41;47.50;38.75;21.00
30713;PMS7003;17465;47.934;33.430;2024-02-15T09:54:27;48.50;42.25;25.00
30713;PMS7003;17465;47.934;33.430;2024-02-15T09:57:02;43.50;38.25;21.75
30713;PMS7003;17465;47.934;33.430;2024-02-15T09:59:55;45.50;38.25;21.00
30713;PMS7003;17465;47.934;33.430;2024-02-15T10:02:27;46.75;40.50;23.00
30713;PMS7003;17465;47.934;33.430;2024-02-15T10:04:58;32.75;29.00;15.00
30713;PMS7003;17465;47.934;33.430;2024-02-15T10:07:29;50.25;41.25;23.50
30713;PMS7003;17465;47.934;33.430;2024-02-15T10:10:13;47.75;39.75;24.50
30713;PMS7003;17465;47.934;33.430;2024-02-15T10:12:46;46.75;39.75;24.00
30713;PMS7003;17465;47.934;33.430;2024-02-15T10:15:34;41.75;36.75;24.00
30713;PMS7003;17465;47.934;33.430;2024-02-15T10:18:03;50.75;41.00;23.50
30713;PMS7003;17465;47.934;33.430;2024-02-15T10:20:39;36.75;33.50;14.75
30713;PMS7003;17465;47.934;33.430;2024-02-15T10:23:10;47.25;41.25;23.75
30713;PMS7003;17465;47.934;33.430;2024-02-15T10:25:41;49.50;42.75;25.75
30713;PMS7003;17465;47.934;33.430;2024-02-15T10:28:11;41.75;36.50;20.00
30713;PMS7003;17465;47.934;33.430;2024-02-15T10:30:43;44.00;37.50;19.75
30713;PMS7003;17465;47.934;33.430;2024-02-15T10:33:25;46.50;40.00;23.00
30713;PMS7003;17465;47.934;33.430;2024-02-15T10:36:09;40.00;36.75;15.00
30713;PMS7003;17465;47.934;33.430;2024-02-15T10:41:50;44.25;38.00;22.00
30713;PMS7003;17465;47.934;33.430;2024-02-15T10:44:23;43.00;38.75;21.50
30713;PMS7003;17465;47.934;33.430;2024-02-15T10:46:56;47.25;39.25;24.00
30713;PMS7003;17465;47.934;33.430;2024-02-15T10:49:27;38.75;37.00;21.75
30713;PMS7003;17465;47.934;33.430;2024-02-15T10:51:57;39.00;33.75;15.50
30713;PMS7003;17465;47.934;33.430;2024-02-15T10:55:16;32.75;32.75;19.00
30713;PMS7003;17465;47.934;33.430;2024-02-15T10:57:05;44.75;38.00;21.00
30713;PMS7003;17465;47.934;33.430;2024-02-15T10:59:43;19.75;19.25;11.75
30713;PMS7003;17465;47.934;33.430;2024-02-15T11:05:33;30.00;25.00;14.00
30713;PMS7003;17465;47.934;33.430;2024-02-15T11:08:08;32.00;28.50;10.50
30713;PMS7003;17465;47.934;33.430;2024-02-15T11:10:40;40.00;37.50;18.25
30713;PMS7003;17465;47.934;33.430;2024-02-15T11:13:11;41.50;38.00;21.25
30713;PMS7003;17465;47.934;33.430;2024-02-15T11:15:43;37.75;37.00;20.25
30713;PMS7003;17465;47.934;33.430;2024-02-15T11:21:17;37.00;35.50;19.00
30713;PMS7003;17465;47.934;33.430;2024-02-15T11:23:49;42.25;37.25;20.75
30713;PMS7003;17465;47.934;33.430;2024-02-15T11:32:36;46.75;39.50;19.25
30713;PMS7003;17465;47.934;33.430;2024-02-15T11:35:14;41.25;36.25;17.50
30713;PMS7003;17465;47.934;33.430;2024-02-15T11:40:22;31.50;31.50;18.75
30713;PMS7003;17465;47.934;33.430;2024-02-15T11:42:58;44.25;40.00;23.25
30713;PMS7003;17465;47.934;33.430;2024-02-15T11:45:31;39.50;35.50;22.00
30713;PMS7003;17465;47.934;33.430;2024-02-15T11:48:07;41.25;37.50;19.50
30713;PMS7003;17465;47.934;33.430;2024-02-15T11:50:41;41.75;38.50;21.75
30713;PMS7003;17465;47.934;33.430;2024-02-15T11:53:12;50.00;39.75;22.50
30713;PMS7003;17465;47.934;33.430;2024-02-15T11:55:53;42.50;36.50;23.25
30713;PMS7003;17465;47.934;33.430;2024-02-15T11:58:26;45.25;38.75;24.25
30713;PMS7003;17465;47.934;33.430;2024-02-15T12:01:00;42.50;38.50;24.00
30713;PMS7003;17465;47.934;33.430;2024-02-15T12:03:31;37.50;30.25;20.50
30713;PMS7003;17465;47.934;33.430;2024-02-15T12:06:01;45.50;39.25;24.00
30713;PMS7003;17465;47.934;33.430;2024-02-15T12:08:33;41.25;38.25;21.50
30713;PMS7003;17465;47.934;33.430;2024-02-15T12:11:05;41.50;37.75;23.75
30713;PMS7003;17465;47.934;33.430;2024-02-15T12:13:35;45.50;38.75;20.75
30713;PMS7003;17465;47.934;33.430;2024-02-15T12:16:05;47.25;39.25;24.00
30713;PMS7003;17465;47.934;33.430;2024-02-15T12:18:36;38.25;34.25;19.75
30713;PMS7003;17465;47.934;33.430;2024-02-15T12:21:06;39.00;33.50;19.00
30713;PMS7003;17465;47.934;33.430;2024-02-15T12:23:39;43.25;40.25;23.75
30713;PMS7003;17465;47.934;33.430;2024-02-15T12:26:09;45.25;38.50;23.25
30713;PMS7003;17465;47.934;33.430;2024-02-15T12:28:41;52.00;42.75;25.50
30713;PMS7003;17465;47.934;33.430;2024-02-15T12:31:13;44.00;39.50;24.50
30713;PMS7003;17465;47.934;33.430;2024-02-15T12:33:43;45.75;38.00;19.00
30713;PMS7003;17465;47.934;33.430;2024-02-15T12:36:14;45.75;39.00;23.50
30713;PMS7003;17465;47.934;33.430;2024-02-15T12:38:45;41.75;39.00;24.75
30713;PMS7003;17465;47.934;33.430;2024-02-15T12:41:21;35.75;33.50;16.75
30713;PMS7003;17465;47.934;33.430;2024-02-15T12:43:54;39.75;36.75;21.75
30713;PMS7003;17465;47.934;33.430;2024-02-15T12:46:27;49.50;38.25;21.00
30713;PMS7003;17465;47.934;33.430;2024-02-15T12:51:52;46.75;39.25;25.75
30713;PMS7003;17465;47.934;33.430;2024-02-15T12:54:24;47.75;41.00;21.75
30713;PMS7003;17465;47.934;33.430;2024-02-15T12:57:06;37.50;36.00;23.50
30713;PMS7003;17465;47.934;33.430;2024-02-15T12:59:40;39.75;36.25;20.50
30713;PMS7003;17465;47.934;33.430;2024-02-15T13:02:12;42.75;37.25;23.75
30713;PMS7003;17465;47.934;33.430;2024-02-15T13:04:46;44.50;39.75;23.50
30713;PMS7003;17465;47.934;33.430;2024-02-15T13:07:26;53.25;41.50;21.75
30713;PMS7003;17465;47.934;33.430;2024-02-15T13:10:02;26.75;25.50;16.25
30713;PMS7003;17465;47.934;33.430;2024-02-15T13:12:36;50.75;42.00;23.75
30713;PMS7003;17465;47.934;33.430;2024-02-15T13:15:09;42.75;38.50;21.00
30713;PMS7003;17465;47.934;33.430;2024-02-15T13:17:49;42.25;38.50;19.25
30713;PMS7003;17465;47.934;33.430;2024-02-15T13:20:23;45.75;40.25;22.50
30713;PMS7003;17465;47.934;33.430;2024-02-15T13:22:53;48.25;39.75;23.00
30713;PMS7003;17465;47.934;33.430;2024-02-15T13:25:27;42.50;37.00;18.75
30713;PMS7003;17465;47.934;33.430;2024-02-15T13:27:58;42.25;37.50;20.00
30713;PMS7003;17465;47.934;33.430;2024-02-15T13:30:28;43.50;37.75;20.00
30713;PMS7003;17465;47.934;33.430;2024-02-15T13:32:58;31.75;30.25;15.00
30713;PMS7003;17465;47.934;33.430;2024-02-15T13:35:30;34.25;29.25;17.75
30713;PMS7003;17465;47.934;33.430;2024-02-15T13:38:01;29.25;28.50;9.50
30713;PMS7003;17465;47.934;33.430;2024-02-15T13:40:32;31.50;29.00;13.00
30713;PMS7003;17465;47.934;33.430;2024-02-15T13:43:02;28.50;24.25;13.00
30713;PMS7003;17465;47.934;33.430;2024-02-15T13:45:40;34.50;29.75;15.25
30713;PMS7003;17465;47.934;33.430;2024-02-15T13:48:13;30.50;29.50;14.00
30713;PMS7003;17465;47.934;33.430;2024-02-15T13:50:46;39.50;36.50;15.25
30713;PMS7003;17465;47.934;33.430;2024-02-15T13:53:16;49.00;41.00;23.00
30713;PMS7003;17465;47.934;33.430;2024-02-15T13:55:52;25.00;22.75;9.00
30713;PMS7003;17465;47.934;33.430;2024-02-15T13:58:18;32.25;31.25;14.00
30713;PMS7003;17465;47.934;33.430;2024-02-15T14:00:48;34.25;34.00;12.50
30713;PMS7003;17465;47.934;33.430;2024-02-15T14:03:21;24.75;24.50;12.00
30713;PMS7003;17465;47.934;33.430;2024-02-15T14:05:52;29.00;23.25;7.75
30713;PMS7003;17465;47.934;33.430;2024-02-15T14:08:22;28.50;23.75;8.00
30713;PMS7003;17465;47.934;33.430;2024-02-15T14:10:54;17.25;12.75;6.00
30713;PMS7003;17465;47.934;33.430;2024-02-15T14:13:25;29.40;26.80;8.00
30713;PMS7003;17465;47.934;33.430;2024-02-15T14:15:55;29.60;28.20;8.60
30713;PMS7003;17465;47.934;33.430;2024-02-15T14:18:26;32.60;28.20;8.00
30713;PMS7003;17465;47.934;33.430;2024-02-15T14:20:56;33.40;29.00;16.80
30713;PMS7003;17465;47.934;33.430;2024-02-15T14:23:28;43.40;37.60;18.80
30713;PMS7003;17465;47.934;33.430;2024-02-15T14:25:58;34.50;31.00;22.00